Terminal Aerodrome Forecast
Issued by NWS Bismarck, ND

Home | Current Version | Previous Version | Text Only | Print | Product List | Glossary On
Versions: 1 2 3 4 5 6 7 8 9 10 11 12 13 14 15 16 17 18 19 20 21 22 23 24
000
FTUS43 KBIS 290800 AAA
TAFBIS
TAF AMD
KBIS 290810Z 2908/3006 10003KT 1/4SM FG VV003
      TEMPO 2909/2912 1/2SM FG SCT003
     FM291200 27006KT 1SM BR SCT005
     FM291400 28007KT P6SM SCT100
     FM291800 34011KT P6SM BKN080=

USA.gov is the U.S. government's official web portal to all federal, state and local government web resources and services.